APA110A LEPA-EDDM
Flight info
| Callsign | APA110A |
|---|---|
| Flight time | N/A |
| Altitude | 32000 |
| Route | MEROS DCT LAPIT DCT CHELY DCT LUMAS/N0435F340 DCT UNANA/N0431F300 DCT STP/N0441F360 DCT RAPED DCT PIGOS DCT EKSID DCT NOSTA DCT NOPMU DCT VAKON DCT TAGIP DCT GUNGO DCT TISAX DCT IVKAL T102 NINUR T101 BETOS BETOS1B |
| Aircraft | A321/M-SDE3FGHIRWY/LB1 |
Departure
| Time | N/A |
|---|---|
| Airport | Palma de Mallorca Airport (LEPA) |
Arrival
| Time | 2026-05-07 20:26 |
|---|---|
| Airport | Munich Airport (EDDM) |
| Time | Latitude | Longitude | Altitude | Speed | Heading |
|---|---|---|---|---|---|
| 2026-05-07 20:16 | 48.20273 | 11.85790 | 5077 ft | 238 kts | 98° |
| 2026-05-07 20:16 | 48.20417 | 11.88237 | 5083 ft | 238 kts | 72° |
| 2026-05-07 20:16 | 48.20913 | 11.90610 | 5082 ft | 239 kts | 74° |
| 2026-05-07 20:17 | 48.21355 | 11.93009 | 5084 ft | 239 kts | 75° |
| 2026-05-07 20:17 | 48.21792 | 11.95415 | 5063 ft | 239 kts | 75° |
| 2026-05-07 20:17 | 48.22229 | 11.97819 | 5072 ft | 239 kts | 75° |
| 2026-05-07 20:17 | 48.22666 | 12.00224 | 5090 ft | 238 kts | 75° |
| 2026-05-07 20:18 | 48.23101 | 12.02622 | 5089 ft | 239 kts | 74° |
| 2026-05-07 20:18 | 48.23527 | 12.04970 | 5069 ft | 225 kts | 75° |
| 2026-05-07 20:18 | 48.23933 | 12.07208 | 5063 ft | 225 kts | 75° |
| 2026-05-07 20:18 | 48.24354 | 12.09512 | 5094 ft | 226 kts | 73° |
| 2026-05-07 20:19 | 48.25119 | 12.11505 | 5078 ft | 220 kts | 41° |
| 2026-05-07 20:19 | 48.26457 | 12.12502 | 5081 ft | 216 kts | 9° |
| 2026-05-07 20:19 | 48.27949 | 12.12677 | 5081 ft | 215 kts | 357° |
| 2026-05-07 20:19 | 48.29441 | 12.12573 | 5021 ft | 214 kts | 353° |
| 2026-05-07 20:20 | 48.30917 | 12.12296 | 4948 ft | 213 kts | 350° |
| 2026-05-07 20:20 | 48.32385 | 12.11972 | 4873 ft | 213 kts | 349° |
| 2026-05-07 20:20 | 48.33815 | 12.11438 | 4794 ft | 211 kts | 334° |
| 2026-05-07 20:20 | 48.34994 | 12.10294 | 4726 ft | 190 kts | 316° |
| 2026-05-07 20:21 | 48.35774 | 12.08843 | 4644 ft | 171 kts | 299° |
| 2026-05-07 20:21 | 48.36218 | 12.07235 | 4564 ft | 164 kts | 283° |
| 2026-05-07 20:21 | 48.36348 | 12.05551 | 4483 ft | 162 kts | 268° |
| 2026-05-07 20:21 | 48.36236 | 12.03874 | 4412 ft | 161 kts | 263° |
| 2026-05-07 20:22 | 48.36114 | 12.02209 | 4360 ft | 161 kts | 263° |
| 2026-05-07 20:22 | 48.35995 | 12.00596 | 4156 ft | 151 kts | 263° |
| 2026-05-07 20:22 | 48.35880 | 11.99045 | 3958 ft | 148 kts | 263° |
| 2026-05-07 20:22 | 48.35766 | 11.97513 | 3764 ft | 147 kts | 264° |
| 2026-05-07 20:23 | 48.35651 | 11.95986 | 3567 ft | 147 kts | 264° |
| 2026-05-07 20:23 | 48.35537 | 11.94460 | 3373 ft | 147 kts | 264° |
| 2026-05-07 20:23 | 48.35423 | 11.92936 | 3175 ft | 147 kts | 264° |
| 2026-05-07 20:23 | 48.35309 | 11.91406 | 2958 ft | 147 kts | 264° |
| 2026-05-07 20:24 | 48.35190 | 11.89879 | 2711 ft | 147 kts | 264° |
| 2026-05-07 20:24 | 48.35114 | 11.88867 | 2565 ft | 147 kts | 265° |
| 2026-05-07 20:24 | 48.34997 | 11.87344 | 2345 ft | 146 kts | 264° |
| 2026-05-07 20:24 | 48.34841 | 11.85335 | 2071 ft | 146 kts | 264° |
| 2026-05-07 20:25 | 48.34768 | 11.84318 | 1959 ft | 145 kts | 264° |
| 2026-05-07 20:25 | 48.34619 | 11.82325 | 1720 ft | 144 kts | 265° |
| 2026-05-07 20:25 | 48.34509 | 11.80824 | 1589 ft | 145 kts | 264° |
| 2026-05-07 20:25 | 48.34397 | 11.79365 | 1481 ft | 129 kts | 263° |
| 2026-05-07 20:26 | 48.34337 | 11.78605 | 1481 ft | 89 kts | 263° |
| 2026-05-07 20:26 | 48.34285 | 11.77920 | 1486 ft | 52 kts | 263° |
| 2026-05-07 20:26 | 48.34250 | 11.77452 | 1479 ft | 32 kts | 268° |
| 2026-05-07 20:26 | 48.34294 | 11.77138 | 1474 ft | 23 kts | 291° |
| 2026-05-07 20:27 | 48.34349 | 11.76941 | 1481 ft | 20 kts | 296° |
| 2026-05-07 20:27 | 48.34390 | 11.76805 | 1485 ft | 13 kts | 294° |
| 2026-05-07 20:27 | 48.34450 | 11.76713 | 1483 ft | 12 kts | 340° |
| 2026-05-07 20:27 | 48.34532 | 11.76693 | 1483 ft | 11 kts | 356° |
| 2026-05-07 20:28 | 48.34575 | 11.76766 | 1481 ft | 9 kts | 79° |
| 2026-05-07 20:28 | 48.34583 | 11.76861 | 1473 ft | 9 kts | 83° |
| 2026-05-07 20:28 | 48.34590 | 11.76947 | 1485 ft | 8 kts | 83° |
| 2026-05-07 20:28 | 48.34597 | 11.77025 | 1482 ft | 7 kts | 83° |
| 2026-05-07 20:29 | 48.34602 | 11.77095 | 1485 ft | 6 kts | 83° |
| 2026-05-07 20:29 | 48.34608 | 11.77177 | 1485 ft | 12 kts | 83° |
| 2026-05-07 20:29 | 48.34619 | 11.77309 | 1485 ft | 12 kts | 83° |
| 2026-05-07 20:29 | 48.34628 | 11.77434 | 1477 ft | 12 kts | 83° |
| 2026-05-07 20:30 | 48.34643 | 11.77619 | 1485 ft | 21 kts | 83° |
| 2026-05-07 20:30 | 48.34654 | 11.77787 | 1480 ft | 14 kts | 83° |
| 2026-05-07 20:30 | 48.34698 | 11.77890 | 1485 ft | 12 kts | 7° |
| 2026-05-07 20:30 | 48.34776 | 11.77881 | 1482 ft | 11 kts | 354° |
| 2026-05-07 20:31 | 48.34850 | 11.77870 | 1485 ft | 10 kts | 352° |
| 2026-05-07 20:31 | 48.34919 | 11.77857 | 1478 ft | 10 kts | 354° |
| 2026-05-07 20:31 | 48.34985 | 11.77845 | 1480 ft | 9 kts | 353° |
| 2026-05-07 20:31 | 48.35043 | 11.77835 | 1480 ft | 3 kts | 354° |
| 2026-05-07 20:32 | 48.35056 | 11.77845 | 1485 ft | 4 kts | 45° |
| 2026-05-07 20:32 | 48.35064 | 11.77885 | 1485 ft | 4 kts | 80° |
| 2026-05-07 20:32 | 48.35067 | 11.77917 | 1485 ft | 3 kts | 83° |
| 2026-05-07 20:32 | 48.35068 | 11.77938 | 1485 ft | 2 kts | 83° |
| 2026-05-07 20:33 | 48.35069 | 11.77949 | 1485 ft | 0 kts | 83° |
| 2026-05-07 20:33 | 48.35069 | 11.77950 | 1485 ft | 0 kts | 83° |